Wetterdaten: Samstag, 24.07.2010
Datum Zeit Temp. A. Feuchte A. Luftdruck Regen Wind Richtung Richtung Sonnenschein UV Solar Windben
24.07.2010 00:00 19,3 C 69 % 1016,2 hPa 0,0 mm 0,0 km/h (0 Bft) N-NW 337 0 min 0 UV-I 0 W/m 4,8 km/h (1 Bft)
24.07.2010 00:10 19,3 C 70 % 1016,1 hPa 0,0 mm 0,0 km/h (0 Bft) N-NW 337 0 min 0 UV-I 0 W/m 3,2 km/h (1 Bft)
24.07.2010 00:20 19,2 C 70 % 1016,2 hPa 0,0 mm 1,6 km/h (1 Bft) N-NW 337 0 min 0 UV-I 0 W/m 6,4 km/h (2 Bft)
24.07.2010 00:30 19,1 C 71 % 1016,3 hPa 0,0 mm 0,0 km/h (0 Bft) N-NW 337 0 min 0 UV-I 0 W/m 3,2 km/h (1 Bft)
24.07.2010 00:40 18,9 C 72 % 1016,4 hPa 0,0 mm 1,6 km/h (1 Bft) NW 315 0 min 0 UV-I 0 W/m 4,8 km/h (1 Bft)
24.07.2010 00:50 18,9 C 73 % 1016,5 hPa 0,0 mm 1,6 km/h (1 Bft) N-NO 22 0 min 0 UV-I 0 W/m 9,7 km/h (2 Bft)
24.07.2010 01:00 18,8 C 73 % 1016,5 hPa 0,0 mm 0,0 km/h (0 Bft) N-NO 22 0 min 0 UV-I 0 W/m 4,8 km/h (1 Bft)
24.07.2010 01:10 18,7 C 73 % 1016,6 hPa 0,0 mm 1,6 km/h (1 Bft) N-NO 22 0 min 0 UV-I 0 W/m 6,4 km/h (2 Bft)
24.07.2010 01:20 18,6 C 73 % 1016,7 hPa 0,0 mm 1,6 km/h (1 Bft) N 360 0 min 0 UV-I 0 W/m 6,4 km/h (2 Bft)
24.07.2010 01:30 18,4 C 74 % 1016,8 hPa 0,0 mm 0,0 km/h (0 Bft) W-NW 292 0 min 0 UV-I 0 W/m 3,2 km/h (1 Bft)
24.07.2010 01:40 18,3 C 74 % 1016,8 hPa 0,0 mm 0,0 km/h (0 Bft) W-NW 292 0 min 0 UV-I 0 W/m 4,8 km/h (1 Bft)
24.07.2010 01:50 18,2 C 74 % 1016,8 hPa 0,0 mm 0,0 km/h (0 Bft) W-NW 292 0 min 0 UV-I 0 W/m 1,6 km/h (1 Bft)
24.07.2010 02:00 18,1 C 74 % 1016,8 hPa 0,0 mm 0,0 km/h (0 Bft) W-NW 292 0 min 0 UV-I 0 W/m 3,2 km/h (1 Bft)
24.07.2010 02:10 18,1 C 75 % 1016,7 hPa 0,0 mm 0,0 km/h (0 Bft) W-NW 292 0 min 0 UV-I 0 W/m 1,6 km/h (1 Bft)
24.07.2010 02:20 17,9 C 76 % 1016,7 hPa 0,0 mm 0,0 km/h (0 Bft) SW 225 0 min 0 UV-I 0 W/m 4,8 km/h (1 Bft)
24.07.2010 02:30 17,8 C 77 % 1016,7 hPa 0,0 mm 0,0 km/h (0 Bft) W-SW 247 0 min 0 UV-I 0 W/m 3,2 km/h (1 Bft)
24.07.2010 02:40 17,7 C 78 % 1016,7 hPa 0,0 mm 0,0 km/h (0 Bft) W-SW 247 0 min 0 UV-I 0 W/m 3,2 km/h (1 Bft)
24.07.2010 02:50 17,5 C 79 % 1016,8 hPa 0,0 mm 0,0 km/h (0 Bft) W-SW 247 0 min 0 UV-I 0 W/m 3,2 km/h (1 Bft)
24.07.2010 03:00 17,3 C 79 % 1016,8 hPa 0,0 mm 0,0 km/h (0 Bft) W-SW 247 0 min 0 UV-I 0 W/m 1,6 km/h (1 Bft)
24.07.2010 03:10 17,2 C 79 % 1016,8 hPa 0,0 mm 0,0 km/h (0 Bft) W-SW 247 0 min 0 UV-I 0 W/m 4,8 km/h (1 Bft)
24.07.2010 03:20 16,9 C 79 % 1016,8 hPa 0,0 mm 1,6 km/h (1 Bft) W-SW 247 0 min 0 UV-I 0 W/m 6,4 km/h (2 Bft)
24.07.2010 03:30 16,7 C 80 % 1016,9 hPa 0,0 mm 0,0 km/h (0 Bft) W 270 0 min 0 UV-I 0 W/m 3,2 km/h (1 Bft)
24.07.2010 03:40 16,6 C 80 % 1016,9 hPa 0,0 mm 0,0 km/h (0 Bft) W 270 0 min 0 UV-I 0 W/m 3,2 km/h (1 Bft)
24.07.2010 03:50 16,5 C 81 % 1016,7 hPa 0,0 mm 0,0 km/h (0 Bft) W 270 0 min 0 UV-I 0 W/m 3,2 km/h (1 Bft)
24.07.2010 04:00 16,4 C 82 % 1016,8 hPa 0,0 mm 1,6 km/h (1 Bft) W 270 0 min 0 UV-I 0 W/m 6,4 km/h (2 Bft)
24.07.2010 04:10 16,3 C 81 % 1017,0 hPa 0,0 mm 1,6 km/h (1 Bft) W 270 0 min 0 UV-I 0 W/m 6,4 km/h (2 Bft)
24.07.2010 04:20 16,3 C 81 % 1017,1 hPa 0,0 mm 1,6 km/h (1 Bft) W 270 0 min 0 UV-I 0 W/m 4,8 km/h (1 Bft)
24.07.2010 04:30 16,3 C 81 % 1017,1 hPa 0,0 mm 0,0 km/h (0 Bft) W 270 0 min 0 UV-I 0 W/m 3,2 km/h (1 Bft)
24.07.2010 04:40 16,3 C 81 % 1017,2 hPa 0,0 mm 0,0 km/h (0 Bft) W 270 0 min 0 UV-I 0 W/m 1,6 km/h (1 Bft)
24.07.2010 04:50 16,4 C 80 % 1017,3 hPa 0,0 mm 1,6 km/h (1 Bft) W 270 0 min 0 UV-I 0 W/m 8,0 km/h (2 Bft)
24.07.2010 05:00 16,4 C 79 % 1017,3 hPa 0,0 mm 0,0 km/h (0 Bft) W-NW 292 0 min 0 UV-I 0 W/m 3,2 km/h (1 Bft)
24.07.2010 05:10 16,4 C 79 % 1017,4 hPa 0,0 mm 0,0 km/h (0 Bft) W-NW 292 0 min 0 UV-I 0 W/m 4,8 km/h (1 Bft)
24.07.2010 05:20 16,4 C 79 % 1017,4 hPa 0,0 mm 0,0 km/h (0 Bft) W-NW 292 0 min 0 UV-I 0 W/m 4,8 km/h (1 Bft)
24.07.2010 05:30 16,5 C 79 % 1017,4 hPa 0,0 mm 0,0 km/h (0 Bft) W-NW 292 0 min 0 UV-I 0 W/m 8,0 km/h (2 Bft)
24.07.2010 05:40 16,5 C 79 % 1017,4 hPa 0,0 mm 0,0 km/h (0 Bft) W-NW 292 0 min 0 UV-I 0 W/m 1,6 km/h (1 Bft)
24.07.2010 05:50 16,5 C 79 % 1017,4 hPa 0,0 mm 0,0 km/h (0 Bft) W-NW 292 0 min 0 UV-I 0 W/m 4,8 km/h (1 Bft)
24.07.2010 06:00 16,4 C 79 % 1017,5 hPa 0,0 mm 1,6 km/h (1 Bft) W-NW 292 0 min 0 UV-I 0 W/m 8,0 km/h (2 Bft)
24.07.2010 06:10 16,4 C 79 % 1017,5 hPa 0,0 mm 1,6 km/h (1 Bft) W-NW 292 0 min 0 UV-I 7 W/m 6,4 km/h (2 Bft)
24.07.2010 06:20 16,4 C 79 % 1017,7 hPa 0,0 mm 1,6 km/h (1 Bft) W-NW 292 0 min 0 UV-I 9 W/m 6,4 km/h (2 Bft)
24.07.2010 06:30 16,3 C 80 % 1017,8 hPa 0,0 mm 1,6 km/h (1 Bft) W 270 0 min 0 UV-I 12 W/m 6,4 km/h (2 Bft)
24.07.2010 06:40 16,3 C 80 % 1017,7 hPa 0,0 mm 1,6 km/h (1 Bft) W 270 0 min 0 UV-I 44 W/m 6,4 km/h (2 Bft)
24.07.2010 06:50 16,3 C 80 % 1017,8 hPa 0,0 mm 1,6 km/h (1 Bft) W 270 0 min 0 UV-I 40 W/m 9,7 km/h (2 Bft)
24.07.2010 07:00 16,3 C 80 % 1018,0 hPa 0,0 mm 1,6 km/h (1 Bft) W-NW 292 0 min 0 UV-I 23 W/m 6,4 km/h (2 Bft)
24.07.2010 07:10 16,3 C 80 % 1018,2 hPa 0,0 mm 1,6 km/h (1 Bft) NW 315 0 min 0 UV-I 33 W/m 8,0 km/h (2 Bft)
24.07.2010 07:20 16,3 C 80 % 1018,2 hPa 0,0 mm 1,6 km/h (1 Bft) W-NW 292 0 min 0 UV-I 46 W/m 8,0 km/h (2 Bft)
24.07.2010 07:30 16,4 C 80 % 1018,2 hPa 0,0 mm 4,8 km/h (1 Bft) W-NW 292 0 min 0 UV-I 84 W/m 9,7 km/h (2 Bft)
24.07.2010 07:40 16,4 C 80 % 1018,1 hPa 0,0 mm 3,2 km/h (1 Bft) W-NW 292 0 min 1 UV-I 77 W/m 9,7 km/h (2 Bft)
24.07.2010 07:50 16,5 C 80 % 1018,2 hPa 0,0 mm 1,6 km/h (1 Bft) W-NW 292 0 min 1 UV-I 95 W/m 8,0 km/h (2 Bft)
24.07.2010 08:00 16,6 C 80 % 1018,2 hPa 0,0 mm 1,6 km/h (1 Bft) W-NW 292 0 min 1 UV-I 84 W/m 6,4 km/h (2 Bft)
24.07.2010 08:10 16,8 C 80 % 1018,2 hPa 0,0 mm 1,6 km/h (1 Bft) NW 315 10 min 1 UV-I 216 W/m 9,7 km/h (2 Bft)
24.07.2010 08:20 16,7 C 79 % 1018,0 hPa 0,0 mm 3,2 km/h (1 Bft) W-NW 292 0 min 1 UV-I 185 W/m 17,7 km/h (3 Bft)
24.07.2010 08:30 16,7 C 78 % 1018,2 hPa 0,0 mm 4,8 km/h (1 Bft) W-NW 292 0 min 1 UV-I 104 W/m 17,7 km/h (3 Bft)
24.07.2010 08:40 16,6 C 79 % 1018,2 hPa 0,0 mm 6,4 km/h (2 Bft) W-NW 292 0 min 1 UV-I 181 W/m 19,3 km/h (3 Bft)
24.07.2010 08:50 16,7 C 79 % 1018,2 hPa 0,0 mm 4,8 km/h (1 Bft) W-NW 292 0 min 1 UV-I 214 W/m 19,3 km/h (3 Bft)
24.07.2010 09:00 16,7 C 77 % 1018,2 hPa 0,0 mm 4,8 km/h (1 Bft) NW 315 0 min 1 UV-I 192 W/m 14,5 km/h (3 Bft)
24.07.2010 09:10 16,7 C 78 % 1018,2 hPa 0,0 mm 4,8 km/h (1 Bft) W-NW 292 0 min 1 UV-I 190 W/m 16,1 km/h (3 Bft)
24.07.2010 09:20 16,9 C 78 % 1018,3 hPa 0,0 mm 3,2 km/h (1 Bft) NW 315 0 min 1 UV-I 186 W/m 11,3 km/h (2 Bft)
24.07.2010 09:30 16,8 C 78 % 1018,2 hPa 0,0 mm 3,2 km/h (1 Bft) W-NW 292 0 min 1 UV-I 100 W/m 16,1 km/h (3 Bft)
24.07.2010 09:40 16,8 C 77 % 1018,4 hPa 0,0 mm 3,2 km/h (1 Bft) W-NW 292 0 min 1 UV-I 163 W/m 14,5 km/h (3 Bft)
24.07.2010 09:50 17,0 C 77 % 1018,4 hPa 0,0 mm 3,2 km/h (1 Bft) W-NW 292 0 min 1 UV-I 163 W/m 12,9 km/h (3 Bft)
24.07.2010 10:00 16,9 C 75 % 1018,3 hPa 0,0 mm 6,4 km/h (2 Bft) W-NW 292 0 min 1 UV-I 95 W/m 16,1 km/h (3 Bft)
24.07.2010 10:10 16,9 C 75 % 1018,4 hPa 0,0 mm 4,8 km/h (1 Bft) W-NW 292 0 min 1 UV-I 158 W/m 19,3 km/h (3 Bft)
24.07.2010 10:20 17,2 C 74 % 1018,6 hPa 0,0 mm 4,8 km/h (1 Bft) W-NW 292 0 min 2 UV-I 244 W/m 16,1 km/h (3 Bft)
24.07.2010 10:30 17,3 C 73 % 1018,7 hPa 0,0 mm 3,2 km/h (1 Bft) W-NW 292 0 min 2 UV-I 250 W/m 11,3 km/h (2 Bft)
24.07.2010 10:40 17,4 C 73 % 1018,6 hPa 0,0 mm 4,8 km/h (1 Bft) W-NW 292 0 min 2 UV-I 243 W/m 17,7 km/h (3 Bft)
24.07.2010 10:50 17,6 C 70 % 1018,7 hPa 0,0 mm 6,4 km/h (2 Bft) W-NW 292 0 min 2 UV-I 281 W/m 17,7 km/h (3 Bft)
24.07.2010 11:00 17,7 C 67 % 1018,6 hPa 0,0 mm 6,4 km/h (2 Bft) W-NW 292 0 min 2 UV-I 278 W/m 16,1 km/h (3 Bft)
24.07.2010 11:10 17,5 C 67 % 1018,7 hPa 0,0 mm 8,0 km/h (2 Bft) W-NW 292 0 min 2 UV-I 232 W/m 20,9 km/h (4 Bft)
24.07.2010 11:20 17,7 C 67 % 1018,7 hPa 0,0 mm 6,4 km/h (2 Bft) W-NW 292 0 min 3 UV-I 304 W/m 19,3 km/h (3 Bft)
24.07.2010 11:30 17,9 C 65 % 1018,8 hPa 0,0 mm 4,8 km/h (1 Bft) W-NW 292 0 min 2 UV-I 274 W/m 16,1 km/h (3 Bft)
24.07.2010 11:40 17,4 C 64 % 1018,7 hPa 0,0 mm 8,0 km/h (2 Bft) W-NW 292 0 min 1 UV-I 149 W/m 20,9 km/h (4 Bft)
24.07.2010 11:50 17,4 C 66 % 1018,7 hPa 0,0 mm 4,8 km/h (1 Bft) W-NW 292 0 min 2 UV-I 241 W/m 11,3 km/h (2 Bft)
24.07.2010 12:00 17,8 C 65 % 1018,7 hPa 0,0 mm 4,8 km/h (1 Bft) W-NW 292 0 min 2 UV-I 262 W/m 14,5 km/h (3 Bft)
24.07.2010 12:10 17,9 C 65 % 1018,7 hPa 0,0 mm 4,8 km/h (1 Bft) W-NW 292 0 min 3 UV-I 346 W/m 14,5 km/h (3 Bft)
24.07.2010 12:20 18,6 C 62 % 1018,6 hPa 0,0 mm 1,6 km/h (1 Bft) NW 315 10 min 5 UV-I 483 W/m 11,3 km/h (2 Bft)
24.07.2010 12:30 18,2 C 59 % 1018,6 hPa 0,0 mm 4,8 km/h (1 Bft) W-NW 292 0 min 3 UV-I 243 W/m 22,5 km/h (4 Bft)
24.07.2010 12:40 18,9 C 55 % 1018,7 hPa 0,0 mm 6,4 km/h (2 Bft) NW 315 10 min 7 UV-I 1120 W/m 17,7 km/h (3 Bft)
24.07.2010 12:50 18,4 C 53 % 1018,5 hPa 0,0 mm 6,4 km/h (2 Bft) W 270 0 min 4 UV-I 294 W/m 20,9 km/h (4 Bft)
24.07.2010 13:00 20,3 C 51 % 1018,4 hPa 0,0 mm 6,4 km/h (2 Bft) W-NW 292 10 min 7 UV-I 1053 W/m 19,3 km/h (3 Bft)
24.07.2010 13:10 20,3 C 47 % 1018,4 hPa 0,0 mm 9,7 km/h (2 Bft) W-NW 292 10 min 7 UV-I 1035 W/m 25,7 km/h (4 Bft)
24.07.2010 13:20 19,8 C 48 % 1018,5 hPa 0,0 mm 9,7 km/h (2 Bft) W-NW 292 10 min 7 UV-I 1141 W/m 24,1 km/h (4 Bft)
24.07.2010 13:30 19,3 C 48 % 1018,5 hPa 0,0 mm 9,7 km/h (2 Bft) W-NW 292 10 min 5 UV-I 476 W/m 25,7 km/h (4 Bft)
24.07.2010 13:40 19,7 C 46 % 1018,5 hPa 0,0 mm 9,7 km/h (2 Bft) W 270 10 min 7 UV-I 1183 W/m 25,7 km/h (4 Bft)
24.07.2010 13:50 19,8 C 45 % 1018,5 hPa 0,0 mm 8,0 km/h (2 Bft) W-NW 292 10 min 7 UV-I 1037 W/m 20,9 km/h (4 Bft)
24.07.2010 14:00 20,7 C 44 % 1018,2 hPa 0,0 mm 9,7 km/h (2 Bft) W-NW 292 10 min 7 UV-I 1067 W/m 25,7 km/h (4 Bft)
24.07.2010 14:10 19,4 C 45 % 1018,4 hPa 0,0 mm 9,7 km/h (2 Bft) W-NW 292 0 min 6 UV-I 366 W/m 24,1 km/h (4 Bft)
24.07.2010 14:20 20,2 C 43 % 1018,4 hPa 0,0 mm 9,7 km/h (2 Bft) W 270 0 min 7 UV-I 415 W/m 24,1 km/h (4 Bft)
24.07.2010 14:30 19,8 C 43 % 1018,4 hPa 0,0 mm 9,7 km/h (2 Bft) NW 315 10 min 7 UV-I 1093 W/m 27,4 km/h (4 Bft)
24.07.2010 14:40 19,8 C 44 % 1018,3 hPa 0,0 mm 9,7 km/h (2 Bft) W-NW 292 10 min 7 UV-I 1058 W/m 25,7 km/h (4 Bft)
24.07.2010 14:50 19,3 C 45 % 1018,3 hPa 0,0 mm 9,7 km/h (2 Bft) W-NW 292 10 min 6 UV-I 1081 W/m 25,7 km/h (4 Bft)
24.07.2010 15:00 19,6 C 44 % 1018,3 hPa 0,0 mm 8,0 km/h (2 Bft) W-NW 292 10 min 6 UV-I 1027 W/m 25,7 km/h (4 Bft)
24.07.2010 15:10 19,7 C 44 % 1018,4 hPa 0,0 mm 9,7 km/h (2 Bft) W-NW 292 10 min 6 UV-I 902 W/m 25,7 km/h (4 Bft)
24.07.2010 15:20 20,4 C 44 % 1018,4 hPa 0,0 mm 8,0 km/h (2 Bft) W-NW 292 10 min 6 UV-I 1002 W/m 30,6 km/h (5 Bft)
24.07.2010 15:30 20,2 C 41 % 1018,4 hPa 0,0 mm 9,7 km/h (2 Bft) W-NW 292 10 min 6 UV-I 997 W/m 35,4 km/h (5 Bft)
24.07.2010 15:40 19,6 C 44 % 1018,5 hPa 0,0 mm 9,7 km/h (2 Bft) W-NW 292 0 min 4 UV-I 339 W/m 25,7 km/h (4 Bft)
24.07.2010 15:50 20,6 C 43 % 1018,4 hPa 0,0 mm 8,0 km/h (2 Bft) W-NW 292 10 min 5 UV-I 1058 W/m 17,7 km/h (3 Bft)
24.07.2010 16:00 19,8 C 44 % 1018,3 hPa 0,0 mm 7,7 km/h (2 Bft) NO 36 0 min 2 UV-I 267 W/m 24,1 km/h (4 Bft)
24.07.2010 16:10 19,8 C 45 % 1018,3 hPa 0,0 mm 8,0 km/h (2 Bft) NW 315 10 min 5 UV-I 1000 W/m 22,5 km/h (4 Bft)
24.07.2010 16:20 19,6 C 45 % 1018,4 hPa 0,0 mm 9,7 km/h (2 Bft) W 270 0 min 3 UV-I 294 W/m 24,1 km/h (4 Bft)
24.07.2010 16:30 20,3 C 45 % 1018,4 hPa 0,0 mm 9,7 km/h (2 Bft) W-NW 292 10 min 4 UV-I 853 W/m 24,1 km/h (4 Bft)
24.07.2010 16:40 20,7 C 44 % 1018,3 hPa 0,0 mm 9,7 km/h (2 Bft) W-NW 292 10 min 4 UV-I 780 W/m 25,7 km/h (4 Bft)
24.07.2010 16:50 20,5 C 45 % 1018,0 hPa 0,0 mm 6,4 km/h (2 Bft) NW 315 10 min 4 UV-I 782 W/m 20,9 km/h (4 Bft)
24.07.2010 17:00 21,3 C 42 % 1017,9 hPa 0,0 mm 9,7 km/h (2 Bft) W 270 10 min 3 UV-I 816 W/m 30,6 km/h (5 Bft)
24.07.2010 17:10 20,9 C 41 % 1017,9 hPa 0,0 mm 11,3 km/h (2 Bft) W 270 10 min 3 UV-I 833 W/m 27,4 km/h (4 Bft)
24.07.2010 17:20 20,1 C 43 % 1017,9 hPa 0,0 mm 8,0 km/h (2 Bft) W-NW 292 0 min 3 UV-I 239 W/m 25,7 km/h (4 Bft)
24.07.2010 17:30 19,5 C 43 % 1018,1 hPa 0,0 mm 8,0 km/h (2 Bft) W-NW 292 0 min 2 UV-I 274 W/m 22,5 km/h (4 Bft)
24.07.2010 17:40 19,7 C 43 % 1018,0 hPa 0,0 mm 8,0 km/h (2 Bft) W-NW 292 10 min 2 UV-I 671 W/m 24,1 km/h (4 Bft)
24.07.2010 17:50 20,6 C 40 % 1017,8 hPa 0,0 mm 9,7 km/h (2 Bft) W-NW 292 10 min 2 UV-I 603 W/m 27,4 km/h (4 Bft)
24.07.2010 18:00 20,8 C 41 % 1017,7 hPa 0,0 mm 11,3 km/h (2 Bft) W 270 10 min 2 UV-I 621 W/m 29,0 km/h (5 Bft)
24.07.2010 18:10 20,8 C 40 % 1017,7 hPa 0,0 mm 8,0 km/h (2 Bft) W-NW 292 10 min 2 UV-I 541 W/m 19,3 km/h (3 Bft)
24.07.2010 18:20 20,7 C 40 % 1017,6 hPa 0,0 mm 9,7 km/h (2 Bft) W 270 10 min 2 UV-I 499 W/m 25,7 km/h (4 Bft)
24.07.2010 18:30 21,4 C 40 % 1017,6 hPa 0,0 mm 6,4 km/h (2 Bft) W-NW 292 10 min 2 UV-I 515 W/m 25,7 km/h (4 Bft)
24.07.2010 18:40 21,0 C 39 % 1017,4 hPa 0,0 mm 8,0 km/h (2 Bft) W-NW 292 10 min 1 UV-I 501 W/m 20,9 km/h (4 Bft)
24.07.2010 18:50 20,9 C 38 % 1017,4 hPa 0,0 mm 8,0 km/h (2 Bft) W-NW 292 10 min 1 UV-I 459 W/m 25,7 km/h (4 Bft)
24.07.2010 19:00 20,6 C 39 % 1017,4 hPa 0,0 mm 8,0 km/h (2 Bft) W-NW 292 10 min 1 UV-I 396 W/m 25,7 km/h (4 Bft)
24.07.2010 19:10 19,9 C 40 % 1017,7 hPa 0,0 mm 6,4 km/h (2 Bft) W-NW 292 10 min 1 UV-I 325 W/m 19,3 km/h (3 Bft)
24.07.2010 19:20 20,3 C 40 % 1017,7 hPa 0,0 mm 6,4 km/h (2 Bft) NW 315 10 min 1 UV-I 323 W/m 22,5 km/h (4 Bft)
24.07.2010 19:30 20,0 C 40 % 1017,6 hPa 0,0 mm 6,4 km/h (2 Bft) W-NW 292 10 min 1 UV-I 315 W/m 19,3 km/h (3 Bft)
24.07.2010 19:40 19,9 C 42 % 1017,6 hPa 0,0 mm 6,4 km/h (2 Bft) W 270 10 min 1 UV-I 239 W/m 17,7 km/h (3 Bft)
24.07.2010 19:50 19,4 C 41 % 1017,6 hPa 0,0 mm 6,4 km/h (2 Bft) NW 315 10 min 1 UV-I 220 W/m 22,5 km/h (4 Bft)
24.07.2010 20:00 18,9 C 43 % 1017,7 hPa 0,0 mm 4,8 km/h (1 Bft) W-NW 292 10 min 1 UV-I 167 W/m 16,1 km/h (3 Bft)
24.07.2010 20:10 18,8 C 43 % 1017,7 hPa 0,0 mm 4,8 km/h (1 Bft) W-NW 292 10 min 0 UV-I 172 W/m 19,3 km/h (3 Bft)
24.07.2010 20:20 18,7 C 44 % 1017,7 hPa 0,0 mm 3,2 km/h (1 Bft) W-NW 292 0 min 0 UV-I 51 W/m 11,3 km/h (2 Bft)
24.07.2010 20:30 18,4 C 45 % 1017,8 hPa 0,0 mm 4,8 km/h (1 Bft) W-NW 292 0 min 0 UV-I 28 W/m 22,5 km/h (4 Bft)
24.07.2010 20:40 18,2 C 45 % 1017,8 hPa 0,0 mm 3,2 km/h (1 Bft) W-NW 292 0 min 0 UV-I 25 W/m 17,7 km/h (3 Bft)
24.07.2010 20:50 18,0 C 47 % 1017,7 hPa 0,0 mm 3,2 km/h (1 Bft) W-NW 292 0 min 0 UV-I 19 W/m 17,7 km/h (3 Bft)
24.07.2010 21:00 17,7 C 48 % 1017,6 hPa 0,0 mm 4,8 km/h (1 Bft) W-NW 292 0 min 0 UV-I 16 W/m 17,7 km/h (3 Bft)
24.07.2010 21:10 17,5 C 48 % 1017,7 hPa 0,0 mm 3,2 km/h (1 Bft) W 270 0 min 0 UV-I 12 W/m 11,3 km/h (2 Bft)
24.07.2010 21:20 17,3 C 48 % 1017,8 hPa 0,0 mm 3,2 km/h (1 Bft) W-NW 292 0 min 0 UV-I 9 W/m 14,5 km/h (3 Bft)
24.07.2010 21:30 17,0 C 48 % 1017,8 hPa 0,0 mm 1,6 km/h (1 Bft) NW 315 0 min 0 UV-I 5 W/m 8,0 km/h (2 Bft)
24.07.2010 21:40 16,8 C 50 % 1017,8 hPa 0,0 mm 3,2 km/h (1 Bft) W-NW 292 0 min 0 UV-I 0 W/m 12,9 km/h (3 Bft)
24.07.2010 21:50 16,4 C 52 % 1017,9 hPa 0,0 mm 1,6 km/h (1 Bft) W-NW 292 0 min 0 UV-I 0 W/m 6,4 km/h (2 Bft)
24.07.2010 22:00 16,0 C 54 % 1018,1 hPa 0,0 mm 0,0 km/h (0 Bft) N-NW 337 0 min 0 UV-I 0 W/m 8,0 km/h (2 Bft)
24.07.2010 22:10 15,8 C 54 % 1018,0 hPa 0,0 mm 0,0 km/h (0 Bft) NW 315 0 min 0 UV-I 0 W/m 6,4 km/h (2 Bft)
24.07.2010 22:20 15,5 C 55 % 1018,2 hPa 0,0 mm 0,0 km/h (0 Bft) NW 315 0 min 0 UV-I 0 W/m 4,8 km/h (1 Bft)
24.07.2010 22:30 15,3 C 57 % 1018,0 hPa 0,0 mm 0,0 km/h (0 Bft) W-NW 292 0 min 0 UV-I 0 W/m 4,8 km/h (1 Bft)
24.07.2010 22:40 15,1 C 58 % 1018,1 hPa 0,0 mm 0,0 km/h (0 Bft) NW 315 0 min 0 UV-I 0 W/m 8,0 km/h (2 Bft)
24.07.2010 22:50 15,0 C 60 % 1018,2 hPa 0,0 mm 0,0 km/h (0 Bft) NW 315 0 min 0 UV-I 0 W/m 1,6 km/h (1 Bft)
24.07.2010 23:00 14,8 C 61 % 1018,2 hPa 0,0 mm 0,0 km/h (0 Bft) NW 315 0 min 0 UV-I 0 W/m 3,2 km/h (1 Bft)
24.07.2010 23:10 14,6 C 61 % 1018,3 hPa 0,0 mm 0,0 km/h (0 Bft) NW 315 0 min 0 UV-I 0 W/m 3,2 km/h (1 Bft)
24.07.2010 23:20 14,6 C 62 % 1018,2 hPa 0,0 mm 0,0 km/h (0 Bft) NW 315 0 min 0 UV-I 0 W/m 3,2 km/h (1 Bft)
24.07.2010 23:30 14,4 C 63 % 1018,2 hPa 0,0 mm 0,0 km/h (0 Bft) W-NW 292 0 min 0 UV-I 0 W/m 4,8 km/h (1 Bft)
24.07.2010 23:40 14,1 C 62 % 1018,2 hPa 0,0 mm 0,0 km/h (0 Bft) NW 315 0 min 0 UV-I 0 W/m 6,4 km/h (2 Bft)
24.07.2010 23:50 13,9 C 63 % 1018,3 hPa 0,0 mm 1,6 km/h (1 Bft) NW 315 0 min 0 UV-I 0 W/m 4,8 km/h (1 Bft)
_ Min-Zeit 23:50 18:50 00:10 - 00:00 - - - - - 01:50
Minimum _ 13,9 C 38 % 1016,1 hPa - 0,0 km/h (0 Bft) - - - - - 1,6 km/h (1 Bft)
_ Max-Zeit 17:10 04:00 11:30 00:00 17:10 - - 08:10 13:40 13:40 15:30
Maximum _ 21,5 C 82 % 1018,8 hPa 0,0 mm 11,3 km/h
W (2 Bft)
- - 10 min 7 UV-I 1183 W/m 35,4 km/h
NW (5 Bft)
Durchschnitt _ 18,0 C 62 % 1017,8 hPa #0,0 mm 4,1 km/h (1 Bft) W-NW - #6:40 h 3 UV-I 399 W/m 13,8 km/h (3 Bft)